Terminal Aerodrome Forecast
Issued by NWS Quad Cities IA IL

Home | Current Version | Previous Version | Text Only | Print | Product List | Glossary On
Versions: 1 2 3 4 5 6 7 8 9 10 11 12 13 14 15 16 17 18 19 20
000
FTUS43 KDVN 010642 AAB
TAFMLI
TAF AMD
KMLI 010642Z 0107/0206 20004KT P6SM SCT030
     FM010900 29010KT 5SM BR OVC015
      TEMPO 0109/0113 3SM -RA
     FM011400 29016G24KT P6SM OVC025
     FM011800 30018G28KT P6SM OVC050=

USA.gov is the U.S. government's official web portal to all federal, state and local government web resources and services.